Time;durP1;ratioP1;P1;durP2;ratioP2;P2;SDS_P1;SDS_P2;PMS_P1;PMS_P2;Temp;Humidity;BMP_temperature;BMP_pressure;BME280_temperature;BME280_humidity;BME280_pressure;Samples;Min_cycle;Max_cycle;Signal;HPM_P1;HPM_P2
2021/10/03 00:00:08;;;;;;;43.90;28.70;;;;;;;11.71;66.94;99307.44;236471;1194;139350;-60
2021/10/03 00:05:36;;;;;;;48.70;28.80;;;;;;;11.69;66.98;99304.73;236154;1195;138558;-60
2021/10/03 00:10:40;;;;;;;48.90;29.90;;;;;;;11.71;67.07;99306.96;236019;1194;138407;-60
2021/10/03 00:15:45;;;;;;;44.90;30.00;;;;;;;11.64;66.98;99307.17;235948;1195;142460;-63
2021/10/03 00:21:12;;;;;;;37.90;25.10;;;;;;;11.62;67.05;99302.34;235905;1194;138974;-59
2021/10/03 00:26:15;;;;;;;44.90;27.70;;;;;;;11.59;66.98;99298.60;236251;1194;140006;-62
2021/10/03 00:31:21;;;;;;;45.30;26.20;;;;;;;11.56;66.96;99293.30;236017;1195;139113;-60
2021/10/03 00:36:25;;;;;;;45.80;26.70;;;;;;;11.52;67.12;99286.79;236502;1194;138932;-62
2021/10/03 00:41:28;;;;;;;39.30;25.60;;;;;;;11.49;67.17;99281.82;236329;1193;138463;-61
2021/10/03 00:46:32;;;;;;;37.20;25.10;;;;;;;11.42;67.17;99282.40;236424;1195;138768;-68
2021/10/03 00:51:35;;;;;;;36.00;24.90;;;;;;;11.35;66.97;99285.37;236360;1195;138919;-63
2021/10/03 00:56:39;;;;;;;37.80;25.00;;;;;;;11.29;67.28;99284.31;236484;1195;138806;-63
2021/10/03 01:01:46;;;;;;;37.10;23.40;;;;;;;11.22;67.25;99289.36;235085;1195;139173;-63
2021/10/03 01:06:51;;;;;;;37.00;23.10;;;;;;;11.14;66.92;99291.23;236228;1195;139210;-66
2021/10/03 01:11:54;;;;;;;36.40;23.00;;;;;;;11.11;67.32;99293.89;236311;1195;139574;-64
2021/10/03 01:16:58;;;;;;;37.20;23.70;;;;;;;11.08;67.22;99295.30;236649;1193;138872;-63
2021/10/03 01:22:04;;;;;;;32.50;23.20;;;;;;;11.06;67.03;99294.39;236294;1193;138676;-65
2021/10/03 01:27:12;;;;;;;32.30;22.90;;;;;;;11.00;67.05;99287.79;236401;1193;139749;-64
2021/10/03 01:32:18;;;;;;;34.30;22.40;;;;;;;10.94;67.20;99274.52;236460;1194;139078;-64
2021/10/03 01:37:23;;;;;;;36.90;23.00;;;;;;;10.89;66.90;99276.22;236268;1195;138605;-66
2021/10/03 01:42:26;;;;;;;31.00;20.10;;;;;;;10.84;66.89;99273.48;236252;1195;138711;-67
2021/10/03 01:47:29;;;;;;;29.80;19.40;;;;;;;10.82;67.14;99270.98;236307;1194;140098;-64
2021/10/03 01:52:32;;;;;;;34.80;21.10;;;;;;;10.78;66.86;99265.36;236369;1195;138697;-62
2021/10/03 01:57:36;;;;;;;29.70;20.10;;;;;;;10.73;66.83;99267.63;236281;1195;141393;-62
2021/10/03 02:02:39;;;;;;;29.90;19.50;;;;;;;10.68;66.66;99261.68;235884;1195;138621;-62
2021/10/03 02:07:42;;;;;;;29.40;20.10;;;;;;;10.61;67.03;99254.11;236207;1195;139624;-62
2021/10/03 02:12:49;;;;;;;31.30;20.50;;;;;;;10.53;67.04;99250.50;236081;1195;139105;-62
2021/10/03 02:17:52;;;;;;;30.80;20.20;;;;;;;10.45;67.02;99251.14;236262;1195;138539;-61
2021/10/03 02:22:55;;;;;;;31.00;18.60;;;;;;;10.34;66.94;99244.48;236255;1195;139161;-63
2021/10/03 02:27:58;;;;;;;28.10;18.60;;;;;;;10.32;67.26;99242.83;235931;1195;139877;-66
2021/10/03 02:33:02;;;;;;;27.80;18.60;;;;;;;10.34;67.22;99234.55;236233;1195;139761;-63
2021/10/03 02:38:07;;;;;;;31.20;19.10;;;;;;;10.36;67.33;99234.97;236330;1195;138720;-62
2021/10/03 02:43:12;;;;;;;27.20;18.50;;;;;;;10.33;67.52;99236.20;235867;1194;138860;-60
2021/10/03 02:48:17;;;;;;;27.20;17.90;;;;;;;10.29;67.17;99232.54;236397;1194;209301;-63
2021/10/03 02:53:21;;;;;;;;;;;;;;;10.23;67.11;99233.92;235850;1195;139145;-61
2021/10/03 02:58:25;;;;;;;32.90;18.70;;;;;;;10.18;67.51;99234.42;236730;1194;127591;-61
2021/10/03 03:03:30;;;;;;;26.00;16.10;;;;;;;10.12;67.55;99228.15;235841;1195;138548;-61
2021/10/03 03:08:33;;;;;;;24.60;17.30;;;;;;;10.09;67.17;99223.91;235762;1195;139243;-58
2021/10/03 03:13:36;;;;;;;24.80;16.60;;;;;;;10.10;67.25;99210.94;236167;1195;139352;-64
2021/10/03 03:18:41;;;;;;;25.60;16.70;;;;;;;10.11;67.26;99213.90;235861;1195;139072;-63
2021/10/03 03:23:45;;;;;;;24.60;16.40;;;;;;;10.10;67.53;99213.58;236152;1195;139141;-62
2021/10/03 03:28:48;;;;;;;25.80;16.10;;;;;;;10.09;67.54;99210.46;236196;1189;138721;-64
2021/10/03 03:33:52;;;;;;;22.40;16.00;;;;;;;10.06;67.77;99217.34;235829;1195;138694;-70
2021/10/03 03:38:55;;;;;;;23.90;15.60;;;;;;;10.01;67.77;99206.11;235916;1195;140363;-63
2021/10/03 03:43:58;;;;;;;20.50;14.20;;;;;;;9.99;67.72;99197.20;236005;1195;139209;-63
2021/10/03 03:49:02;;;;;;;22.40;14.70;;;;;;;10.02;68.07;99202.70;236449;1195;139034;-60
2021/10/03 03:54:05;;;;;;;19.90;14.30;;;;;;;10.04;67.80;99204.88;236375;1195;139373;-62
2021/10/03 03:59:08;;;;;;;19.20;13.70;;;;;;;10.07;67.96;99205.60;235869;1195;144117;-63
2021/10/03 04:04:12;;;;;;;20.50;13.20;;;;;;;10.10;68.02;99205.27;236032;1195;138632;-63
2021/10/03 04:09:14;;;;;;;20.40;14.20;;;;;;;10.11;68.17;99205.73;236406;1187;141049;-63
2021/10/03 04:14:18;;;;;;;21.50;14.10;;;;;;;10.10;68.25;99204.55;236363;1195;138733;-64
2021/10/03 04:19:21;;;;;;;22.70;13.40;;;;;;;10.06;67.86;99208.46;236089;1195;138935;-63
2021/10/03 04:24:24;;;;;;;17.80;12.00;;;;;;;10.01;67.89;99213.91;236005;1195;138836;-64
2021/10/03 04:29:27;;;;;;;17.70;11.70;;;;;;;10.00;67.98;99216.30;236402;1195;140208;-64
2021/10/03 04:34:30;;;;;;;19.30;12.60;;;;;;;10.03;68.18;99216.83;236373;1195;138837;-64
2021/10/03 04:39:34;;;;;;;18.30;12.60;;;;;;;10.05;68.19;99217.25;235950;1194;138338;-64
2021/10/03 04:44:40;;;;;;;19.40;12.80;;;;;;;10.05;68.24;99216.18;235890;1195;138482;-62
2021/10/03 04:49:43;;;;;;;19.80;13.80;;;;;;;10.03;68.29;99219.27;235996;1194;141521;-63
2021/10/03 04:54:46;;;;;;;20.10;13.70;;;;;;;10.04;68.05;99212.50;236125;1195;140386;-63
2021/10/03 04:59:49;;;;;;;20.90;15.10;;;;;;;10.01;68.36;99210.54;236029;1195;138268;-63
2021/10/03 05:04:52;;;;;;;21.10;14.10;;;;;;;9.97;68.07;99207.77;236059;1194;138652;-62
2021/10/03 05:09:55;;;;;;;20.40;14.20;;;;;;;9.92;67.96;99209.44;236462;1195;139047;-64
2021/10/03 05:14:59;;;;;;;24.10;14.70;;;;;;;9.94;68.41;99216.95;236354;1194;138919;-64
2021/10/03 05:20:03;;;;;;;30.10;15.90;;;;;;;9.95;68.06;99206.98;236120;1195;139380;-64
2021/10/03 05:25:06;;;;;;;20.90;15.00;;;;;;;9.98;68.17;99205.20;235520;1195;139032;-64
2021/10/03 05:30:10;;;;;;;23.30;15.80;;;;;;;9.99;68.31;99198.61;236292;1195;139206;-64
2021/10/03 05:35:13;;;;;;;25.50;15.70;;;;;;;9.98;67.99;99204.88;235551;1195;139203;-63
2021/10/03 05:40:16;;;;;;;20.20;15.20;;;;;;;9.94;68.08;99211.13;235817;1195;138294;-63
2021/10/03 05:45:20;;;;;;;19.20;12.90;;;;;;;9.94;68.29;99206.70;236159;1194;139625;-62
2021/10/03 05:50:23;;;;;;;22.90;12.50;;;;;;;9.97;68.41;99210.25;235662;1195;139393;-64
2021/10/03 05:55:27;;;;;;;20.70;13.80;;;;;;;10.03;68.55;99209.56;235527;1196;139478;-67
2021/10/03 06:00:30;;;;;;;20.00;13.30;;;;;;;10.10;68.61;99209.15;235789;1196;139373;-66
2021/10/03 06:05:34;;;;;;;20.10;14.10;;;;;;;10.18;68.62;99207.07;236024;1195;138532;-66
2021/10/03 06:10:38;;;;;;;22.80;14.50;;;;;;;10.23;68.65;99203.10;236156;1195;138535;-65
2021/10/03 06:15:44;;;;;;;22.60;15.10;;;;;;;10.30;69.01;99212.61;235365;1195;138535;-66
2021/10/03 06:20:47;;;;;;;21.10;13.40;;;;;;;10.38;68.92;99210.74;235839;1195;138364;-65
2021/10/03 06:25:51;;;;;;;20.70;12.70;;;;;;;10.46;68.94;99207.96;235664;1195;139297;-70
2021/10/03 06:30:54;;;;;;;54.90;38.00;;;;;;;10.85;70.30;99204.73;235903;1195;138788;-65
2021/10/03 06:35:57;;;;;;;20.70;14.20;;;;;;;11.34;69.75;99192.88;236174;1195;138591;-65
2021/10/03 06:41:01;;;;;;;23.00;13.50;;;;;;;11.46;68.95;99197.42;236101;1195;138727;-66
2021/10/03 06:46:08;;;;;;;19.10;13.40;;;;;;;11.48;68.82;99203.73;235697;1195;139147;-64
2021/10/03 06:51:12;;;;;;;54.20;36.80;;;;;;;11.50;68.82;99201.46;235961;1195;139246;-63
2021/10/03 06:56:15;;;;;;;22.00;13.20;;;;;;;11.58;68.68;99203.05;235691;1196;138388;-64
2021/10/03 07:01:18;;;;;;;276.70;237.90;;;;;;;11.56;68.67;99201.91;236281;1195;138827;-68
2021/10/03 07:06:22;;;;;;;26.90;17.60;;;;;;;11.64;68.73;99205.55;235967;1195;139648;-63
2021/10/03 07:11:25;;;;;;;20.50;13.50;;;;;;;11.74;69.07;99203.45;235855;1195;139510;-64
2021/10/03 07:16:28;;;;;;;18.00;13.30;;;;;;;11.81;68.93;99197.51;235927;1195;139032;-68
2021/10/03 07:21:31;;;;;;;21.20;14.20;;;;;;;11.93;69.26;99188.93;236228;1194;139008;-66
2021/10/03 07:26:34;;;;;;;24.40;15.50;;;;;;;12.05;69.33;99185.86;236391;1195;139026;-66
2021/10/03 07:31:37;;;;;;;21.30;14.60;;;;;;;12.19;69.27;99186.53;236508;1193;138938;-66
2021/10/03 07:36:42;;;;;;;23.00;14.00;;;;;;;12.32;69.35;99186.74;236011;1194;138347;-65
2021/10/03 07:41:47;;;;;;;104.00;64.40;;;;;;;12.48;69.51;99189.70;236311;1193;139551;-64
2021/10/03 07:46:50;;;;;;;27.80;19.10;;;;;;;12.75;69.66;99196.96;236102;1195;139677;-64
2021/10/03 07:51:54;;;;;;;22.90;15.50;;;;;;;13.14;70.17;99196.74;235545;1195;138979;-66
2021/10/03 07:56:57;;;;;;;30.20;16.50;;;;;;;13.37;69.42;99192.66;235753;1195;138682;-67
2021/10/03 08:02:00;;;;;;;670.20;452.60;;;;;;;13.52;69.06;99192.55;236135;1193;139516;-66
2021/10/03 08:07:04;;;;;;;45.50;28.60;;;;;;;13.67;68.85;99194.98;236512;1193;140327;-65
2021/10/03 08:12:07;;;;;;;25.30;17.10;;;;;;;13.76;68.35;99201.33;236617;1193;139614;-65
2021/10/03 08:17:10;;;;;;;26.40;16.50;;;;;;;13.83;68.37;99199.40;236711;1193;139308;-65
2021/10/03 08:22:13;;;;;;;30.90;14.20;;;;;;;13.92;67.96;99201.39;236505;1194;139286;-64
2021/10/03 08:27:16;;;;;;;22.60;13.60;;;;;;;14.02;67.91;99193.54;236498;1193;139976;-65
2021/10/03 08:32:19;;;;;;;30.30;16.90;;;;;;;14.13;67.82;99185.05;236357;1187;139082;-66
2021/10/03 08:37:23;;;;;;;175.30;117.40;;;;;;;14.30;67.95;99180.70;236460;1195;139277;-66
2021/10/03 08:42:26;;;;;;;38.10;20.30;;;;;;;14.48;67.89;99176.38;236292;1194;139018;-66
2021/10/03 08:47:30;;;;;;;28.30;16.30;;;;;;;14.58;67.40;99176.48;236398;1194;139249;-65
2021/10/03 08:52:33;;;;;;;25.40;14.00;;;;;;;14.69;67.17;99178.86;236107;1195;139108;-65
2021/10/03 08:57:36;;;;;;;182.30;110.00;;;;;;;14.81;67.14;99178.09;236100;1195;139170;-64
2021/10/03 09:03:00;;;;;;;593.50;438.10;;;;;;;14.93;66.98;99179.14;235869;1195;140145;-64
2021/10/03 09:08:05;;;;;;;42.30;29.90;;;;;;;15.07;66.84;99175.04;236175;1194;139174;-67
2021/10/03 09:13:09;;;;;;;15.10;9.60;;;;;;;15.19;66.46;99179.46;236207;1194;138651;-64
2021/10/03 09:18:16;;;;;;;16.80;9.50;;;;;;;15.31;66.37;99178.08;236114;1194;139181;-65
2021/10/03 09:23:19;;;;;;;11.60;8.60;;;;;;;15.51;66.34;99177.98;236520;1193;139416;-65
2021/10/03 09:28:25;;;;;;;13.80;9.10;;;;;;;15.72;66.06;99182.53;236230;1195;140491;-65
2021/10/03 09:33:39;;;;;;;14.90;9.10;;;;;;;15.89;65.96;99180.66;236386;1193;139395;-63
2021/10/03 09:38:48;;;;;;;17.60;9.50;;;;;;;16.00;65.70;99177.02;236407;1194;139165;-63
2021/10/03 09:43:56;;;;;;;17.00;8.40;;;;;;;16.09;65.55;99163.77;236333;1193;138843;-63
2021/10/03 09:49:00;;;;;;;12.20;8.40;;;;;;;16.21;65.22;99155.79;236225;1195;138958;-64
2021/10/03 09:54:05;;;;;;;14.80;8.70;;;;;;;16.31;65.12;99145.80;236339;1195;138664;-64
2021/10/03 09:59:08;;;;;;;11.50;7.50;;;;;;;16.42;65.14;99139.73;236505;1194;138905;-64
2021/10/03 10:04:19;;;;;;;16.20;8.30;;;;;;;16.55;64.91;99139.13;236184;1194;138652;-63
2021/10/03 10:09:24;;;;;;;12.60;7.50;;;;;;;16.68;64.47;99130.32;236257;1194;138445;-64
2021/10/03 10:14:37;;;;;;;9.60;6.70;;;;;;;16.83;64.39;99128.90;236346;1195;138706;-65
2021/10/03 10:19:42;;;;;;;10.90;6.90;;;;;;;16.99;64.01;99129.13;236430;1194;138326;-65
2021/10/03 10:24:53;;;;;;;10.50;6.70;;;;;;;17.20;63.68;99120.44;236294;1195;138771;-65
2021/10/03 10:30:04;;;;;;;10.20;6.30;;;;;;;17.40;63.14;99117.21;236445;1193;139124;-65
2021/10/03 10:35:09;;;;;;;6.60;5.80;;;;;;;17.57;62.89;99106.65;236471;1194;138687;-65
2021/10/03 10:40:34;;;;;;;8.50;6.20;;;;;;;17.67;62.30;99098.84;236363;1193;139163;-63
2021/10/03 10:45:41;;;;;;;9.60;5.70;;;;;;;17.78;61.87;99088.55;236158;1194;138614;-63
2021/10/03 10:50:44;;;;;;;11.90;6.00;;;;;;;17.86;61.71;99082.30;236196;1194;140414;-61
2021/10/03 10:56:06;;;;;;;11.70;5.60;;;;;;;17.90;61.34;99075.59;236322;1195;138599;-64
2021/10/03 11:01:12;;;;;;;13.50;7.00;;;;;;;17.98;60.81;99074.14;236395;1194;139653;-60
2021/10/03 11:06:19;;;;;;;11.00;6.60;;;;;;;18.12;61.76;99070.35;236208;1195;138498;-61
2021/10/03 11:11:23;;;;;;;10.10;6.80;;;;;;;18.36;61.70;99071.69;236202;1195;138644;-63
2021/10/03 11:16:32;;;;;;;7.70;5.80;;;;;;;18.47;60.85;99068.17;236299;1194;139680;-63
2021/10/03 11:21:39;;;;;;;8.20;5.20;;;;;;;18.56;60.76;99064.04;236102;1195;138435;-62
2021/10/03 11:26:51;;;;;;;10.70;5.50;;;;;;;18.64;60.30;99062.02;236405;1195;138703;-63
2021/10/03 11:31:59;;;;;;;7.70;4.90;;;;;;;18.73;60.16;99059.85;236385;1193;138257;-62
2021/10/03 11:37:15;;;;;;;7.10;5.00;;;;;;;18.80;59.58;99054.96;236364;1193;137999;-62
2021/10/03 11:42:32;;;;;;;7.50;5.30;;;;;;;18.92;59.46;99048.48;236399;1193;138306;-63
2021/10/03 11:47:48;;;;;;;10.20;5.20;;;;;;;19.05;59.29;99045.75;236511;1194;138680;-62
2021/10/03 11:52:56;;;;;;;6.90;5.00;;;;;;;19.23;58.99;99043.41;236619;1194;139461;-61
2021/10/03 11:58:05;;;;;;;121.20;83.00;;;;;;;19.34;58.29;99031.86;236235;1195;138630;-64
2021/10/03 12:03:08;;;;;;;18.70;13.80;;;;;;;19.47;58.10;99035.52;236466;1195;139514;-65
2021/10/03 12:08:16;;;;;;;10.90;5.70;;;;;;;19.52;57.97;99032.16;236182;1195;138833;-62
2021/10/03 12:13:21;;;;;;;6.80;5.40;;;;;;;19.54;57.75;99025.83;236264;1194;138392;-63
2021/10/03 12:18:24;;;;;;;7.70;5.10;;;;;;;19.55;57.69;99024.44;236539;1194;138555;-65
2021/10/03 12:24:02;;;;;;;7.60;4.40;;;;;;;19.55;57.63;99022.59;236580;1193;138390;-64
2021/10/03 12:29:06;;;;;;;7.00;4.30;;;;;;;19.55;57.22;99017.45;236694;1193;139257;-64
2021/10/03 12:34:15;;;;;;;33.90;24.80;;;;;;;19.56;56.97;99015.67;236523;1193;139961;-63
2021/10/03 12:39:51;;;;;;;11.30;5.30;;;;;;;19.61;57.02;99007.67;236521;1195;139344;-64
2021/10/03 12:44:56;;;;;;;12.70;4.40;;;;;;;19.65;57.13;99004.56;236451;1194;138809;-68
2021/10/03 12:49:59;;;;;;;56.60;33.80;;;;;;;19.70;56.63;98995.66;236529;1193;138235;-64
2021/10/03 12:55:03;;;;;;;9.90;5.80;;;;;;;19.78;56.51;98992.64;236287;1193;138564;-62
2021/10/03 13:00:07;;;;;;;8.90;5.00;;;;;;;19.92;56.26;98984.98;235819;1195;138272;-62
2021/10/03 13:05:11;;;;;;;8.90;4.30;;;;;;;20.05;55.82;98982.30;235838;1195;138211;-64
2021/10/03 13:10:14;;;;;;;5.00;3.90;;;;;;;20.24;55.55;98973.41;236272;1193;139052;-63
2021/10/03 13:15:17;;;;;;;8.10;3.50;;;;;;;20.47;55.22;98970.98;236315;1194;138258;-64
2021/10/03 13:20:20;;;;;;;6.40;3.40;;;;;;;20.72;55.13;98971.71;236476;1193;138866;-63
2021/10/03 13:25:23;;;;;;;8.10;3.90;;;;;;;20.83;54.56;98976.05;236379;1195;138942;-63
2021/10/03 13:30:27;;;;;;;5.80;3.10;;;;;;;20.78;54.01;98970.63;236595;1193;140584;-63
2021/10/03 13:35:31;;;;;;;7.40;3.80;;;;;;;20.67;54.01;98970.61;236402;1194;139882;-64
2021/10/03 13:40:34;;;;;;;5.20;3.50;;;;;;;20.56;53.88;98960.54;236292;1195;138219;-67
2021/10/03 13:45:37;;;;;;;7.80;3.80;;;;;;;20.45;53.73;98951.55;236272;1194;138738;-64
2021/10/03 13:50:41;;;;;;;6.60;3.10;;;;;;;20.34;53.59;98947.84;235862;1195;139617;-68
2021/10/03 13:55:44;;;;;;;6.00;3.80;;;;;;;20.27;53.36;98943.11;236509;1193;138412;-64
2021/10/03 14:00:49;;;;;;;4.40;3.20;;;;;;;20.23;53.48;98942.67;236538;1194;138152;-64
2021/10/03 14:05:52;;;;;;;6.90;4.00;;;;;;;20.20;53.36;98932.74;236431;1195;138048;-67
2021/10/03 14:10:55;;;;;;;8.00;3.60;;;;;;;20.17;53.10;98926.15;236594;1194;138958;-66
2021/10/03 14:15:59;;;;;;;9.20;3.60;;;;;;;20.14;53.03;98927.39;236337;1195;138860;-66
2021/10/03 14:21:02;;;;;;;6.20;3.60;;;;;;;20.11;52.91;98923.55;236494;1194;138653;-64
2021/10/03 14:26:05;;;;;;;7.40;3.80;;;;;;;20.07;53.07;98924.65;236230;1195;139058;-66
2021/10/03 14:31:08;;;;;;;6.70;3.90;;;;;;;20.03;52.87;98926.20;236506;1193;139420;-63
2021/10/03 14:36:11;;;;;;;7.80;4.40;;;;;;;20.01;52.70;98930.48;236480;1193;138683;-63
2021/10/03 14:41:14;;;;;;;6.20;3.50;;;;;;;19.99;52.77;98934.20;236537;1195;138924;-63
2021/10/03 14:46:18;;;;;;;9.20;3.70;;;;;;;19.95;52.56;98931.33;236289;1195;138432;-64
2021/10/03 14:51:21;;;;;;;8.50;3.90;;;;;;;19.92;52.46;98935.77;236350;1194;141298;-63
2021/10/03 14:56:24;;;;;;;6.80;4.10;;;;;;;19.90;52.43;98932.41;236517;1194;138445;-66
2021/10/03 15:01:27;;;;;;;7.90;4.20;;;;;;;19.87;52.49;98935.42;236423;1195;138692;-64
2021/10/03 15:06:33;;;;;;;6.80;3.50;;;;;;;19.83;52.62;98935.06;236495;1195;139681;-63
2021/10/03 15:11:36;;;;;;;7.60;3.80;;;;;;;19.80;52.55;98936.25;235854;1194;139890;-62
2021/10/03 15:16:39;;;;;;;12.70;6.20;;;;;;;19.77;52.68;98935.89;236615;1194;138792;-63
2021/10/03 15:21:43;;;;;;;9.50;6.50;;;;;;;19.73;52.85;98940.92;236466;1194;138313;-63
2021/10/03 15:26:48;;;;;;;6.40;4.20;;;;;;;19.72;52.85;98943.58;236293;1195;138207;-62
2021/10/03 15:31:55;;;;;;;10.90;4.50;;;;;;;19.70;53.00;98941.33;236442;1195;138186;-63
2021/10/03 15:36:58;;;;;;;8.10;4.20;;;;;;;19.66;53.09;98935.94;236523;1194;139183;-64
2021/10/03 15:42:02;;;;;;;7.70;4.10;;;;;;;19.61;53.03;98939.05;236491;1194;138287;-64
2021/10/03 15:47:05;;;;;;;5.40;4.00;;;;;;;19.56;53.08;98941.89;236493;1194;138985;-62
2021/10/03 15:52:09;;;;;;;7.10;4.30;;;;;;;19.51;53.04;98940.24;235883;1195;138143;-61
2021/10/03 15:57:13;;;;;;;6.70;4.00;;;;;;;19.46;53.02;98946.58;235951;1195;139232;-63
2021/10/03 16:02:17;;;;;;;11.20;4.50;;;;;;;19.40;53.15;98947.66;236208;1195;138042;-63
2021/10/03 16:07:20;;;;;;;7.20;4.20;;;;;;;19.35;53.33;98951.92;236417;1193;139742;-63
2021/10/03 16:12:23;;;;;;;11.80;4.60;;;;;;;19.34;53.77;98949.60;236331;1193;138319;-61
2021/10/03 16:17:26;;;;;;;160.90;136.80;;;;;;;19.30;53.69;98949.45;236341;1194;138795;-63
2021/10/03 16:22:30;;;;;;;22.20;14.00;;;;;;;19.27;53.70;98945.20;236050;1195;139011;-63
2021/10/03 16:27:36;;;;;;;12.70;5.90;;;;;;;19.23;53.73;98949.20;236515;1194;138508;-64
2021/10/03 16:32:39;;;;;;;16.40;9.60;;;;;;;19.13;53.86;98957.88;236482;1193;139055;-63
2021/10/03 16:37:42;;;;;;;10.60;7.10;;;;;;;19.09;54.11;98964.75;236542;1193;141026;-64
2021/10/03 16:42:46;;;;;;;14.00;9.00;;;;;;;19.04;54.17;98968.30;236041;1194;139151;-62
2021/10/03 16:47:49;;;;;;;7.90;5.10;;;;;;;19.01;54.37;98970.67;236419;1187;138435;-63
2021/10/03 16:52:52;;;;;;;11.30;6.80;;;;;;;18.97;54.54;98975.89;235974;1195;138607;-62
2021/10/03 16:57:56;;;;;;;12.70;5.90;;;;;;;18.91;54.56;98984.95;236414;1194;138907;-64
2021/10/03 17:03:00;;;;;;;13.90;6.00;;;;;;;18.86;55.03;98981.55;236255;1195;138447;-65
2021/10/03 17:08:08;;;;;;;11.30;5.90;;;;;;;18.87;55.21;98987.98;235606;1195;141623;-62
2021/10/03 17:13:12;;;;;;;12.40;6.10;;;;;;;18.89;55.69;98994.92;236044;1194;138797;-62
2021/10/03 17:18:15;;;;;;;10.10;6.10;;;;;;;18.95;56.07;98993.70;236425;1195;138781;-64
2021/10/03 17:23:18;;;;;;;11.70;5.50;;;;;;;18.99;55.90;99004.67;236557;1194;138948;-63
2021/10/03 17:28:22;;;;;;;8.40;4.80;;;;;;;18.95;55.74;99001.23;236563;1193;140453;-64
2021/10/03 17:33:26;;;;;;;240.40;204.00;;;;;;;18.72;55.06;99007.89;236314;1193;139009;-62
2021/10/03 17:38:29;;;;;;;10.80;6.90;;;;;;;18.44;54.88;99013.86;236498;1195;139928;-64
2021/10/03 17:43:32;;;;;;;8.80;5.80;;;;;;;18.15;55.05;99021.95;236360;1195;139012;-62
2021/10/03 17:48:35;;;;;;;13.90;5.90;;;;;;;17.90;55.03;99036.48;236288;1195;139135;-62
2021/10/03 17:53:38;;;;;;;12.00;5.80;;;;;;;17.68;55.42;99043.69;236272;1194;138358;-62
2021/10/03 17:58:42;;;;;;;12.60;6.90;;;;;;;17.52;55.56;99049.07;236511;1194;141165;-61
2021/10/03 18:03:45;;;;;;;14.60;7.30;;;;;;;17.31;55.58;99059.94;236052;1195;138838;-64
2021/10/03 18:08:50;;;;;;;16.60;6.90;;;;;;;17.09;55.87;99065.64;235814;1195;139060;-62
2021/10/03 18:13:53;;;;;;;15.90;7.10;;;;;;;16.90;56.22;99071.84;235842;1195;138818;-63
2021/10/03 18:18:56;;;;;;;55.70;43.30;;;;;;;16.70;56.57;99081.27;235627;1195;138969;-62
2021/10/03 18:24:00;;;;;;;17.70;10.20;;;;;;;16.60;57.15;99088.41;236065;1194;138734;-62
2021/10/03 18:29:03;;;;;;;13.60;8.70;;;;;;;16.52;57.65;99096.91;236479;1194;138730;-64
2021/10/03 18:34:07;;;;;;;18.60;9.10;;;;;;;16.38;57.65;99099.08;236243;1193;138530;-63
2021/10/03 18:39:10;;;;;;;17.90;9.20;;;;;;;16.24;57.96;99099.84;235795;1195;139006;-60
2021/10/03 18:44:13;;;;;;;12.70;8.30;;;;;;;16.13;58.24;99100.13;235872;1193;140274;-60
2021/10/03 18:49:16;;;;;;;13.90;7.80;;;;;;;16.00;58.41;99105.13;236516;1193;138842;-59
2021/10/03 18:54:19;;;;;;;15.70;8.30;;;;;;;15.89;58.84;99099.58;236238;1193;140106;-60
2021/10/03 18:59:22;;;;;;;14.20;8.40;;;;;;;15.83;59.04;99089.55;236079;1195;139421;-60
2021/10/03 19:04:25;;;;;;;13.20;8.50;;;;;;;15.81;59.52;99100.75;236028;1194;138587;-63
2021/10/03 19:09:33;;;;;;;13.30;8.90;;;;;;;15.79;59.31;99108.45;236413;1195;138479;-61
2021/10/03 19:14:36;;;;;;;18.00;8.80;;;;;;;15.73;59.64;99111.63;236458;1194;138709;-60
2021/10/03 19:19:40;;;;;;;15.30;8.80;;;;;;;15.64;59.57;99115.60;236530;1193;138819;-62
2021/10/03 19:24:43;;;;;;;14.20;8.60;;;;;;;15.51;59.74;99113.94;236354;1194;138829;-64
2021/10/03 19:29:46;;;;;;;16.60;9.00;;;;;;;15.41;59.97;99113.17;236506;1193;139042;-63
2021/10/03 19:34:49;;;;;;;16.20;9.90;;;;;;;15.31;60.22;99117.14;236540;1194;138436;-62
2021/10/03 19:39:52;;;;;;;11.90;9.00;;;;;;;15.24;60.57;99114.00;236474;1194;138803;-61
2021/10/03 19:44:56;;;;;;;15.00;8.70;;;;;;;15.13;60.52;99114.13;235740;1194;139471;-61
2021/10/03 19:49:59;;;;;;;18.50;9.10;;;;;;;15.08;60.69;99117.77;236522;1194;139217;-62
2021/10/03 19:55:03;;;;;;;15.80;8.90;;;;;;;15.08;60.97;99110.27;236304;1187;139733;-62
2021/10/03 20:00:08;;;;;;;15.40;10.10;;;;;;;15.05;61.04;99110.86;236451;1194;138491;-63
2021/10/03 20:05:14;;;;;;;15.30;9.30;;;;;;;14.99;61.07;99116.14;236203;1195;138977;-64
2021/10/03 20:10:18;;;;;;;15.60;9.30;;;;;;;14.90;61.20;99118.48;236509;1187;138509;-64
2021/10/03 20:15:21;;;;;;;14.60;9.50;;;;;;;14.81;61.52;99113.83;236466;1194;138676;-63
2021/10/03 20:20:24;;;;;;;15.50;9.90;;;;;;;14.72;61.52;99117.70;236501;1195;139812;-63
2021/10/03 20:25:28;;;;;;;17.10;10.40;;;;;;;14.62;61.59;99114.55;236420;1195;138600;-63
2021/10/03 20:30:33;;;;;;;22.10;10.20;;;;;;;14.52;61.87;99114.27;236563;1194;139008;-62
2021/10/03 20:35:37;;;;;;;20.10;10.90;;;;;;;14.47;61.93;99112.35;236296;1195;139583;-63
2021/10/03 20:40:41;;;;;;;20.60;11.30;;;;;;;14.47;62.25;99116.75;236274;1195;139233;-61
2021/10/03 20:45:44;;;;;;;21.30;12.30;;;;;;;14.49;62.10;99124.30;236045;1195;140085;-61
2021/10/03 20:50:47;;;;;;;19.70;12.30;;;;;;;14.49;62.47;99121.98;236399;1187;139304;-63
2021/10/03 20:55:50;;;;;;;26.60;12.30;;;;;;;14.44;62.28;99127.39;235848;1195;139130;-61
2021/10/03 21:00:56;;;;;;;17.80;11.70;;;;;;;14.36;62.37;99131.86;236462;1194;139645;-64
2021/10/03 21:05:59;;;;;;;16.90;11.20;;;;;;;14.27;62.48;99133.81;236422;1193;139496;-64
2021/10/03 21:11:03;;;;;;;21.80;12.00;;;;;;;14.19;62.61;99131.98;236596;1193;138772;-63
2021/10/03 21:16:06;;;;;;;20.20;10.60;;;;;;;14.10;62.67;99130.48;236488;1193;139206;-64
2021/10/03 21:21:09;;;;;;;16.40;9.80;;;;;;;14.07;62.84;99126.76;236490;1194;139375;-63
2021/10/03 21:26:14;;;;;;;15.00;10.50;;;;;;;14.11;63.13;99127.91;236495;1194;138827;-63
2021/10/03 21:31:17;;;;;;;19.40;11.40;;;;;;;14.09;63.06;99127.16;236509;1194;139191;-63
2021/10/03 21:36:20;;;;;;;22.00;11.50;;;;;;;14.06;63.14;99122.05;236412;1194;139911;-65
2021/10/03 21:41:24;;;;;;;18.50;11.20;;;;;;;13.99;63.14;99128.48;236562;1195;141736;-60
2021/10/03 21:46:28;;;;;;;20.20;11.80;;;;;;;13.90;63.16;99122.16;236515;1195;139148;-63
2021/10/03 21:51:32;;;;;;;19.70;11.30;;;;;;;13.80;63.18;99124.48;236476;1193;139057;-62
2021/10/03 21:56:35;;;;;;;21.40;11.60;;;;;;;13.73;63.37;99116.80;236111;1195;138863;-62
2021/10/03 22:01:38;;;;;;;19.10;10.60;;;;;;;13.67;63.56;99122.75;236162;1195;138836;-67
2021/10/03 22:06:45;;;;;;;20.00;11.40;;;;;;;13.69;63.73;99118.19;235635;1194;139716;-63
2021/10/03 22:11:49;;;;;;;16.40;10.70;;;;;;;13.68;63.66;99119.49;236194;1195;139741;-63
2021/10/03 22:16:53;;;;;;;17.00;11.20;;;;;;;13.65;63.70;99112.95;236474;1195;139660;-62
2021/10/03 22:21:56;;;;;;;19.80;12.00;;;;;;;13.59;63.75;99117.71;236262;1195;138766;-61
2021/10/03 22:26:59;;;;;;;21.60;11.80;;;;;;;13.59;64.07;99112.84;236270;1195;138669;-60
2021/10/03 22:32:03;;;;;;;23.10;12.40;;;;;;;13.60;63.96;99113.72;236553;1194;139486;-64
2021/10/03 22:37:06;;;;;;;24.00;12.20;;;;;;;13.59;64.04;99109.30;236454;1195;139101;-62
2021/10/03 22:42:09;;;;;;;26.70;11.30;;;;;;;13.57;63.94;99108.88;236520;1194;138401;-61
2021/10/03 22:47:12;;;;;;;23.90;11.90;;;;;;;13.58;64.06;99112.05;236661;1194;140591;-61
2021/10/03 22:52:17;;;;;;;23.40;12.20;;;;;;;13.60;64.18;99104.91;236469;1194;138701;-61
2021/10/03 22:57:21;;;;;;;27.70;13.60;;;;;;;13.61;64.10;99108.13;236101;1194;138783;-61